createdAt,value
2016-11-15T08:41:11.681Z,73.93
2016-11-15T08:42:11.655Z,73.93
2016-11-15T08:43:11.636Z,74.02
2016-11-15T08:44:11.617Z,74.11
2016-11-15T08:45:11.613Z,73.55
2016-11-15T08:46:11.603Z,73.93
2016-11-15T08:47:11.584Z,73.45
2016-11-15T08:48:11.561Z,73.64
2016-11-15T08:49:11.545Z,73.64
2016-11-15T08:50:11.504Z,73.64
2016-11-15T08:51:11.484Z,73.74
2016-11-15T08:52:11.485Z,73.64
2016-11-15T08:53:11.463Z,73.74
2016-11-15T08:54:11.435Z,73.26
2016-11-15T08:55:11.421Z,73.07
2016-11-15T08:56:11.446Z,72.98
2016-11-15T08:57:11.368Z,73.74
2016-11-15T08:58:11.357Z,73.26
2016-11-15T08:59:11.351Z,73.36
2016-11-15T09:00:11.333Z,73.45
2016-11-15T09:01:11.308Z,73.36
2016-11-15T09:02:11.276Z,72.98
2016-11-15T09:03:11.267Z,73.17
2016-11-15T09:04:11.243Z,73.07
2016-11-15T09:05:11.226Z,73.07
2016-11-15T09:06:11.203Z,73.07
2016-11-15T09:07:11.184Z,73.17
2016-11-15T09:08:11.180Z,73.07
2016-11-15T09:09:11.161Z,73.07
2016-11-15T09:10:11.119Z,73.07
2016-11-15T09:11:11.119Z,73.26
2016-11-15T09:12:11.103Z,73.17
2016-11-15T09:13:11.068Z,73.26
2016-11-15T09:14:11.044Z,73.36
2016-11-15T09:15:11.031Z,73.26
2016-11-15T09:16:11.012Z,73.07
2016-11-15T09:17:10.993Z,72.94
2016-11-15T09:18:10.990Z,73.13
2016-11-15T09:19:10.947Z,73.22
2016-11-15T09:20:10.935Z,72.94
2016-11-15T09:21:10.908Z,73.03
2016-11-15T09:22:10.912Z,72.98
2016-11-15T09:23:10.886Z,72.94
2016-11-15T09:24:10.869Z,73.03
2016-11-15T09:25:10.837Z,73.13
2016-11-15T09:26:10.825Z,73.36
2016-11-15T09:27:10.798Z,73.17
2016-11-15T09:28:10.771Z,73.17
2016-11-15T09:29:10.773Z,73.17
2016-11-15T09:30:10.753Z,73.36
2016-11-15T09:31:10.720Z,73.26
2016-11-15T09:32:10.701Z,73.26
2016-11-15T09:33:10.674Z,73.17
2016-11-15T09:34:10.664Z,73.17
2016-11-15T09:35:10.642Z,73.17
2016-11-15T09:36:10.615Z,73.36
2016-11-15T09:37:10.595Z,73.26
2016-11-15T09:38:10.600Z,73.26
2016-11-15T09:39:10.556Z,73.17
2016-11-15T09:40:10.976Z,73.17
2016-11-15T09:41:10.533Z,73.26
2016-11-15T09:42:10.521Z,73.07
2016-11-15T09:43:10.488Z,73.07
2016-11-15T09:44:10.482Z,73.07
2016-11-15T09:45:10.456Z,73.07
2016-11-15T09:46:10.437Z,73.07
2016-11-15T09:47:10.408Z,73.17
2016-11-15T09:48:10.399Z,72.98
2016-11-15T09:49:10.366Z,72.98
2016-11-15T09:50:10.347Z,72.98
2016-11-15T09:51:10.334Z,73.36
2016-11-15T09:52:10.308Z,73.83
2016-11-15T09:53:10.309Z,73.74
2016-11-15T09:54:10.271Z,73.74
2016-11-15T09:55:10.276Z,73.64
2016-11-15T09:56:10.239Z,73.64
2016-11-15T09:57:10.225Z,73.55
2016-11-15T09:58:10.199Z,73.45
2016-11-15T09:59:10.181Z,73.36
2016-11-15T10:00:10.161Z,73.64
2016-11-15T10:01:10.141Z,73.45
2016-11-15T10:02:10.117Z,73.36
2016-11-15T10:03:10.119Z,73.74
2016-11-15T10:04:10.078Z,73.45
2016-11-15T10:05:10.078Z,73.83
2016-11-15T10:06:10.039Z,73.45
2016-11-15T10:07:10.020Z,73.83
2016-11-15T10:08:10.021Z,74.02
2016-11-15T10:09:09.988Z,74.21
2016-11-15T10:10:09.976Z,74.11
2016-11-15T10:11:09.943Z,73.83
2016-11-15T10:12:09.923Z,74.11
2016-11-15T10:13:09.919Z,74.02
2016-11-15T10:14:09.892Z,73.93
2016-11-15T10:15:09.888Z,73.93
2016-11-15T10:16:09.863Z,73.93
2016-11-15T10:17:09.835Z,74.11
2016-11-15T10:18:09.829Z,74.21
2016-11-15T10:19:09.802Z,73.74
2016-11-15T10:20:09.783Z,73.74
2016-11-15T10:21:09.750Z,73.83
2016-11-15T10:22:09.746Z,74.21
2016-11-15T10:23:09.728Z,74.3
2016-11-15T10:24:09.707Z,74.58
2016-11-15T10:25:09.694Z,74.4
2016-11-15T10:26:09.669Z,74.4
2016-11-15T10:27:09.648Z,74.62
2016-11-15T10:28:09.613Z,74.43
2016-11-15T10:29:09.610Z,74.53
2016-11-15T10:30:09.591Z,74.43
2016-11-15T10:31:09.559Z,74.62
2016-11-15T10:32:09.553Z,74.71
2016-11-15T10:33:09.528Z,74.81
2016-11-15T10:34:09.515Z,74.81
2016-11-15T10:35:09.498Z,74.81
2016-11-15T10:36:09.478Z,75.09
2016-11-15T10:37:09.453Z,75.19
2016-11-15T10:38:09.442Z,75.19
2016-11-15T10:39:09.428Z,75.19
2016-11-15T10:40:09.410Z,75
2016-11-15T10:41:09.377Z,75.09
2016-11-15T10:42:09.373Z,75.28
2016-11-15T10:43:09.334Z,75.15
2016-11-15T10:44:09.323Z,75.05
2016-11-15T10:45:09.296Z,75.24
2016-11-15T10:46:09.279Z,75.24
2016-11-15T10:47:09.257Z,75.76
2016-11-15T10:48:09.238Z,76.14
2016-11-15T10:49:09.257Z,76.04
2016-11-15T10:50:09.216Z,76.14
2016-11-15T10:51:09.205Z,75.95
2016-11-15T10:52:09.186Z,75.85
2016-11-15T10:53:09.180Z,76.14
2016-11-15T10:54:09.150Z,76.14
2016-11-15T10:55:09.119Z,75.95
2016-11-15T10:56:09.099Z,76.51
2016-11-15T10:57:09.087Z,76.32
2016-11-15T10:58:09.064Z,76.42
2016-11-15T10:59:09.149Z,76.51
2016-11-15T11:00:09.021Z,76.47
2016-11-15T11:01:09.016Z,76.38
2016-11-15T11:02:08.996Z,76.38
2016-11-15T11:03:08.984Z,76.76
2016-11-15T11:04:08.959Z,76.98
2016-11-15T11:05:08.949Z,77.17
2016-11-15T11:06:08.909Z,77.08
2016-11-15T11:07:08.903Z,77.04
2016-11-15T11:08:08.871Z,77.04
2016-11-15T11:09:08.875Z,77.42
2016-11-15T11:10:08.841Z,77.42
2016-11-15T11:11:08.821Z,77.61
2016-11-15T11:12:08.798Z,77.8
2016-11-15T11:13:08.778Z,77.98
2016-11-15T11:14:08.781Z,77.83
2016-11-15T11:15:08.759Z,77.93
2016-11-15T11:16:08.734Z,77.93
2016-11-15T11:17:08.704Z,78.5
2016-11-15T11:18:08.697Z,78.31
2016-11-15T11:19:08.669Z,78.5
2016-11-15T11:20:08.646Z,78.21
2016-11-15T11:21:08.648Z,78.45
2016-11-15T11:22:08.629Z,78.64
2016-11-15T11:23:08.599Z,78.74
2016-11-15T11:24:08.586Z,78.83
2016-11-15T11:25:08.567Z,79.02
2016-11-15T11:26:08.535Z,79.11
2016-11-15T11:27:09.158Z,78.97
2016-11-15T11:28:08.498Z,79.11
2016-11-15T11:29:08.499Z,79.35
2016-11-15T11:30:08.461Z,79.35
2016-11-15T11:31:08.463Z,79.44
2016-11-15T11:32:08.429Z,79.3
2016-11-15T11:33:08.412Z,80
2016-11-15T11:34:08.386Z,79.82
2016-11-15T11:35:08.368Z,80.05
2016-11-15T11:36:08.371Z,80.05
2016-11-15T11:37:08.333Z,80.05
2016-11-15T11:38:08.329Z,79.95
2016-11-15T11:39:08.306Z,80.33
2016-11-15T11:40:08.283Z,79.86
2016-11-15T11:41:08.281Z,79.82
2016-11-15T11:42:08.257Z,80.19
2016-11-15T11:43:08.222Z,80
2016-11-15T11:44:08.212Z,80.1
2016-11-15T11:45:08.201Z,80.15
2016-11-15T11:46:08.177Z,80.25
2016-11-15T11:47:08.171Z,80.34
2016-11-15T11:48:08.146Z,80.34
2016-11-15T11:49:08.114Z,80.53
2016-11-15T11:50:08.103Z,80.06
2016-11-15T11:51:08.099Z,80.48
2016-11-15T11:52:08.059Z,80.57
2016-11-15T11:53:08.054Z,80.57
2016-11-15T11:54:08.048Z,80.91
2016-11-15T11:55:08.022Z,80.82
2016-11-15T11:56:08.003Z,81.2
2016-11-15T11:57:07.969Z,80.91
2016-11-15T11:58:07.964Z,81.29
2016-11-15T11:59:07.934Z,81.38
2016-11-15T12:00:07.926Z,81.48
2016-11-15T12:01:07.900Z,81.29
2016-11-15T12:02:07.897Z,81.1
2016-11-15T12:03:07.871Z,81.48
2016-11-15T12:04:07.861Z,81.48
2016-11-15T12:05:07.841Z,81.76
2016-11-15T12:06:07.803Z,81.67
2016-11-15T12:07:07.791Z,82.14
2016-11-15T12:08:07.781Z,82.75
2016-11-15T12:09:07.768Z,82.46
2016-11-15T12:10:07.738Z,82.37
2016-11-15T12:11:07.717Z,82.51
2016-11-15T12:12:07.715Z,82.89
2016-11-15T12:13:07.696Z,83.12
2016-11-15T12:14:07.663Z,83.22
2016-11-15T12:15:07.659Z,83.12
2016-11-15T12:16:07.641Z,82.93
2016-11-15T12:17:07.602Z,82.89
2016-11-15T12:18:07.583Z,82.89
2016-11-15T12:19:07.574Z,83.17
2016-11-15T12:20:07.568Z,83.46
2016-11-15T12:21:07.543Z,83.27
2016-11-15T12:22:07.525Z,83.17
2016-11-15T12:23:07.513Z,83.74
2016-11-15T12:24:07.496Z,83.55
2016-11-15T12:25:07.456Z,83.55
2016-11-15T12:26:07.459Z,84.03
2016-11-15T12:27:07.440Z,83.93
2016-11-15T12:28:07.409Z,84.22
2016-11-15T12:29:07.403Z,84.03
2016-11-15T12:30:07.371Z,84.03
2016-11-15T12:31:07.354Z,84.12
2016-11-15T12:32:07.341Z,84.03
2016-11-15T12:33:07.325Z,84.22
2016-11-15T12:34:07.310Z,84.22
2016-11-15T12:35:07.294Z,84.54
2016-11-15T12:36:07.268Z,84.5
2016-11-15T12:37:07.250Z,84.41
2016-11-15T12:38:07.215Z,84.78
2016-11-15T12:39:07.213Z,84.97
2016-11-15T12:40:07.208Z,84.78
2016-11-15T12:41:07.160Z,84.88
2016-11-15T12:42:07.147Z,84.73
2016-11-15T12:43:07.135Z,84.69
2016-11-15T12:44:07.118Z,85.11
2016-11-15T12:45:07.109Z,85.2
2016-11-15T12:46:07.082Z,85.01
2016-11-15T12:47:07.071Z,85.2
2016-11-15T12:48:07.045Z,85.01
2016-11-15T12:49:07.019Z,84.92
2016-11-15T12:50:06.994Z,85.01
2016-11-15T12:51:06.984Z,85.72
2016-11-15T12:52:06.960Z,85.63
2016-11-15T12:53:06.943Z,85.44
2016-11-15T12:54:06.929Z,85.82
2016-11-15T12:55:07.236Z,85.63
2016-11-15T12:56:06.907Z,86.01
2016-11-15T12:57:06.890Z,86.05
2016-11-15T12:58:06.875Z,86.29
2016-11-15T12:59:06.845Z,86.01
2016-11-15T13:00:06.829Z,86.15
2016-11-15T13:01:06.796Z,86.29
2016-11-15T13:02:06.786Z,86.38
2016-11-15T13:03:06.779Z,86.29
2016-11-15T13:04:06.746Z,86.38
2016-11-15T13:05:06.726Z,86.57
2016-11-15T13:06:06.707Z,86.19
2016-11-15T13:07:06.716Z,86.76
2016-11-15T13:08:06.685Z,86.95
2016-11-15T13:09:06.660Z,86.57
2016-11-15T13:10:06.644Z,86.62
2016-11-15T13:11:06.625Z,86.86
2016-11-15T13:12:06.605Z,87.43
2016-11-15T13:13:06.601Z,87.05
2016-11-15T13:14:06.568Z,87.33
2016-11-15T13:15:06.551Z,87.43
2016-11-15T13:16:06.536Z,87.18
2016-11-15T13:17:06.524Z,88.04
2016-11-15T13:18:06.502Z,87.85
2016-11-15T13:19:06.479Z,87.47
2016-11-15T13:20:06.461Z,87.37
2016-11-15T13:21:06.449Z,88.13
2016-11-15T13:22:06.418Z,88.13
2016-11-15T13:23:06.418Z,88.04
2016-11-15T13:24:06.399Z,88.04
2016-11-15T13:25:06.395Z,88.13
2016-11-15T13:26:06.364Z,88.13
2016-11-15T13:27:06.349Z,88.7
2016-11-15T13:28:06.338Z,88.42
2016-11-15T13:29:06.298Z,88.42
2016-11-15T13:30:06.283Z,88.51
2016-11-15T13:31:06.280Z,88.6
2016-11-15T13:32:06.249Z,88.51
2016-11-15T13:33:06.256Z,88.79
2016-11-15T13:34:06.220Z,88.89
2016-11-15T13:35:06.216Z,88.98
2016-11-15T13:36:06.187Z,88.98
2016-11-15T13:37:06.184Z,88.79
2016-11-15T13:38:06.149Z,89.12
2016-11-15T13:39:06.136Z,89.22
2016-11-15T13:40:06.134Z,89.36
2016-11-15T13:41:06.108Z,89.03
2016-11-15T13:42:06.106Z,89.22
2016-11-15T13:43:06.068Z,89.31
2016-11-15T13:44:06.048Z,89.5
2016-11-15T13:45:06.040Z,89.5
2016-11-15T13:46:06.011Z,89.5
2016-11-15T13:47:05.996Z,89.73
2016-11-15T13:48:05.988Z,89.73
2016-11-15T13:49:05.965Z,89.54
2016-11-15T13:50:05.945Z,89.73
2016-11-15T13:51:05.942Z,90.02
2016-11-15T13:52:05.917Z,90.49
2016-11-15T13:53:05.915Z,90.3
2016-11-15T13:54:05.877Z,90.3
2016-11-15T13:55:05.863Z,90.4
2016-11-15T13:56:05.855Z,90.49
2016-11-15T13:57:05.838Z,90.4
2016-11-15T13:58:05.826Z,90.4
2016-11-15T13:59:05.804Z,90.49
2016-11-15T14:00:05.778Z,90.68
2016-11-15T14:01:05.755Z,90.87
2016-11-15T14:02:05.743Z,90.68
2016-11-15T14:03:05.715Z,90.96
2016-11-15T14:04:05.695Z,91.06
2016-11-15T14:05:05.678Z,91.15
2016-11-15T14:06:05.659Z,91.06
2016-11-15T14:07:05.657Z,91.06
2016-11-15T14:08:05.625Z,91.34
2016-11-15T14:09:05.627Z,91.63
2016-11-15T14:10:05.614Z,91.72
2016-11-15T14:11:05.573Z,91.53
2016-11-15T14:12:05.559Z,91.72
2016-11-15T14:13:05.553Z,91.63
2016-11-15T14:14:05.522Z,91.63
2016-11-15T14:15:05.503Z,92
2016-11-15T14:16:05.501Z,91.82
2016-11-15T14:17:05.484Z,91.72
2016-11-15T14:18:05.472Z,92.29
2016-11-15T14:19:05.441Z,92.1
2016-11-15T14:20:05.431Z,92
2016-11-15T14:21:05.405Z,92.29
2016-11-15T14:22:05.389Z,92.29
2016-11-15T14:23:05.374Z,91.82
2016-11-15T14:24:05.356Z,92.1
2016-11-15T14:25:05.339Z,92.38
2016-11-15T14:26:05.330Z,92.38
2016-11-15T14:27:05.313Z,92.76
2016-11-15T14:28:05.295Z,92.66
2016-11-15T14:29:05.270Z,92.85
2016-11-15T14:30:05.247Z,92.57
2016-11-15T14:31:05.252Z,92.66
2016-11-15T14:32:05.312Z,93.42
2016-11-15T14:33:05.215Z,93.42
2016-11-15T14:34:05.196Z,93.61
2016-11-15T14:35:05.174Z,93.51
2016-11-15T14:36:05.144Z,93.42
2016-11-15T14:37:05.147Z,93.04
2016-11-15T14:38:05.125Z,93.8
2016-11-15T14:39:05.114Z,93.7
2016-11-15T14:40:05.074Z,94.08
2016-11-15T14:41:05.073Z,93.99
2016-11-15T14:42:05.048Z,94.18
2016-11-15T14:43:05.026Z,94.27
2016-11-15T14:44:05.015Z,94.08
2016-11-15T14:45:04.997Z,94.37
2016-11-15T14:46:04.989Z,94.84
2016-11-15T14:47:04.955Z,94.56
2016-11-15T14:48:04.980Z,94.27
2016-11-15T14:49:04.934Z,94.65
2016-11-15T14:50:04.926Z,95.03
2016-11-15T14:51:04.900Z,94.93
2016-11-15T14:52:04.871Z,95.12
2016-11-15T14:53:04.875Z,95.5
2016-11-15T14:54:04.847Z,95.4
2016-11-15T14:55:04.843Z,95.31
2016-11-15T14:56:04.818Z,95.31
2016-11-15T14:57:04.800Z,95.5
2016-11-15T14:58:04.769Z,95.5
2016-11-15T14:59:04.773Z,95.68
2016-11-15T15:00:04.750Z,95.68
2016-11-15T15:01:04.729Z,95.97
2016-11-15T15:02:04.723Z,95.78
2016-11-15T15:03:04.684Z,95.92
2016-11-15T15:04:04.680Z,95.97
2016-11-15T15:05:04.664Z,96.25
2016-11-15T15:06:04.647Z,96.06
2016-11-15T15:07:04.625Z,96.44
2016-11-15T15:08:04.599Z,96.63
2016-11-15T15:09:04.596Z,96.35
2016-11-15T15:10:04.588Z,96.73
2016-11-15T15:11:04.547Z,97.1
2016-11-15T15:12:04.550Z,96.73
2016-11-15T15:13:04.529Z,97.01
2016-11-15T15:14:04.499Z,96.91
2016-11-15T15:15:04.482Z,97.2
2016-11-15T15:16:04.462Z,97.1
2016-11-15T15:17:04.447Z,97.2
2016-11-15T15:18:04.449Z,97.39
2016-11-15T15:19:04.424Z,97.1
2016-11-15T15:20:04.394Z,97.58
2016-11-15T15:21:04.377Z,97.58
2016-11-15T15:22:04.367Z,97.48
2016-11-15T15:23:04.349Z,97.58
2016-11-15T15:24:04.345Z,97.62
2016-11-15T15:25:04.325Z,97.91
2016-11-15T15:26:04.297Z,97.81
2016-11-15T15:27:04.318Z,97.62
2016-11-15T15:28:04.276Z,98.1
2016-11-15T15:29:04.254Z,97.81
2016-11-15T15:30:04.227Z,97.91
2016-11-15T15:31:04.214Z,98.19
2016-11-15T15:32:04.186Z,98.28
2016-11-15T15:33:04.177Z,98.47
2016-11-15T15:34:04.168Z,98.47
2016-11-15T15:35:04.129Z,98.57
2016-11-15T15:36:04.126Z,98.19
2016-11-15T15:37:04.098Z,98.38
2016-11-15T15:38:04.076Z,98.94
2016-11-15T15:39:04.055Z,98.85
2016-11-15T15:40:04.052Z,98.57
2016-11-15T15:41:04.021Z,98.94
2016-11-15T15:42:04.004Z,98.94
2016-11-15T15:43:04.001Z,98.94
2016-11-15T15:44:03.987Z,99.13
2016-11-15T15:45:03.954Z,99.13
2016-11-15T15:46:03.928Z,99.37
2016-11-15T15:47:03.932Z,99.37
2016-11-15T15:48:03.894Z,99.94
2016-11-15T15:49:03.881Z,99.75
2016-11-15T15:50:03.879Z,99.94
2016-11-15T15:51:03.840Z,99.99
2016-11-15T15:52:03.821Z,99.75
2016-11-15T15:53:03.807Z,99.84
2016-11-15T15:54:03.792Z,99.99
2016-11-15T15:55:03.775Z,99.99
2016-11-15T15:56:03.770Z,99.99
2016-11-15T15:57:03.753Z,99.99
2016-11-15T15:58:03.715Z,99.99
2016-11-15T15:59:03.713Z,99.99
2016-11-15T16:00:03.680Z,99.99
2016-11-15T16:01:03.675Z,99.99
2016-11-15T16:02:03.663Z,99.99
2016-11-15T16:03:03.645Z,99.99
2016-11-15T16:04:03.608Z,99.99
2016-11-15T16:05:03.589Z,99.99
2016-11-15T16:06:03.586Z,99.99
2016-11-15T16:07:03.569Z,99.99
2016-11-15T16:08:03.550Z,99.99
2016-11-15T16:09:03.520Z,99.99
2016-11-15T16:10:03.515Z,99.99
2016-11-15T16:11:03.495Z,99.99
2016-11-15T16:12:03.471Z,99.99
2016-11-15T16:13:03.462Z,99.99
2016-11-15T16:14:03.448Z,99.99
2016-11-15T16:15:03.411Z,99.99
2016-11-15T16:16:03.408Z,99.99
2016-11-15T16:17:03.388Z,99.99
2016-11-15T16:18:03.373Z,99.99
2016-11-15T16:19:03.356Z,99.99
2016-11-15T16:20:03.342Z,99.99
2016-11-15T16:21:03.330Z,99.99
2016-11-15T16:22:03.294Z,99.99
2016-11-15T16:23:03.285Z,99.99
2016-11-15T16:24:03.272Z,99.99
2016-11-15T16:25:03.248Z,99.99
2016-11-15T16:26:03.230Z,99.99
2016-11-15T16:27:03.199Z,99.99
2016-11-15T16:28:03.201Z,99.99
2016-11-15T16:29:03.165Z,99.99
2016-11-15T16:30:03.155Z,99.99
2016-11-15T16:31:03.142Z,99.99
2016-11-15T16:32:03.118Z,99.99
2016-11-15T16:33:03.115Z,99.99
2016-11-15T16:34:03.090Z,99.99
2016-11-15T16:35:03.061Z,99.99
2016-11-15T16:36:03.041Z,99.99
2016-11-15T16:37:03.032Z,99.99
2016-11-15T16:38:03.015Z,99.99
2016-11-15T16:39:03.009Z,99.99
2016-11-15T16:40:02.992Z,99.99
2016-11-15T16:41:02.956Z,99.99
2016-11-15T16:42:02.947Z,99.99
2016-11-15T16:43:02.935Z,99.99
2016-11-15T16:44:02.905Z,99.99
2016-11-15T16:45:02.887Z,99.99
2016-11-15T16:46:02.882Z,99.99
2016-11-15T16:47:02.856Z,99.99
2016-11-15T16:48:02.860Z,99.99
2016-11-15T16:49:02.831Z,99.99
2016-11-15T16:50:02.821Z,99.99
2016-11-15T16:51:02.796Z,99.99
2016-11-15T16:52:02.789Z,99.99
2016-11-15T16:53:02.765Z,99.99
2016-11-15T16:54:02.754Z,99.99
2016-11-15T16:55:02.745Z,99.99
2016-11-15T16:56:02.726Z,99.99
2016-11-15T16:57:02.698Z,99.99
2016-11-15T16:58:02.689Z,99.99
2016-11-15T16:59:02.667Z,99.99
2016-11-15T17:00:02.644Z,99.99
2016-11-15T17:01:02.628Z,99.99
2016-11-15T17:02:02.628Z,99.99
2016-11-15T17:03:02.619Z,99.99
2016-11-15T17:04:02.589Z,99.99
2016-11-15T17:05:02.566Z,99.99
2016-11-15T17:06:02.550Z,99.99
2016-11-15T17:07:02.551Z,99.99
2016-11-15T17:08:02.539Z,99.99
2016-11-15T17:09:02.524Z,99.99
2016-11-15T17:10:02.589Z,99.99
2016-11-15T17:11:02.472Z,99.99
2016-11-15T17:12:02.465Z,99.99
2016-11-15T17:13:02.441Z,99.99
2016-11-15T17:14:02.433Z,99.99
2016-11-15T17:15:02.426Z,99.99
2016-11-15T17:16:02.410Z,99.99
2016-11-15T17:17:02.386Z,99.99
2016-11-15T17:18:02.386Z,99.99
2016-11-15T17:19:02.348Z,99.99
2016-11-15T17:20:02.355Z,99.99
2016-11-15T17:21:02.317Z,99.99
2016-11-15T17:22:02.314Z,99.99
2016-11-15T17:23:02.286Z,99.99
2016-11-15T17:24:02.271Z,99.99
2016-11-15T17:25:02.258Z,99.99
2016-11-15T17:26:02.247Z,99.99
2016-11-15T17:27:02.237Z,99.99
2016-11-15T17:28:02.230Z,99.99
2016-11-15T17:29:02.217Z,99.99
2016-11-15T17:30:02.194Z,99.99
2016-11-15T17:31:02.183Z,99.99
2016-11-15T17:32:02.150Z,99.99
2016-11-15T17:33:02.141Z,99.99
2016-11-15T17:34:02.116Z,99.99
2016-11-15T17:35:02.099Z,99.99
2016-11-15T17:36:02.097Z,99.99
2016-11-15T17:37:02.079Z,99.99
2016-11-15T17:38:02.055Z,99.99
2016-11-15T17:39:02.340Z,99.99
2016-11-15T17:40:02.019Z,99.99
2016-11-15T17:41:02.025Z,99.99
2016-11-15T17:42:02.006Z,99.99
2016-11-15T17:43:01.979Z,99.99
2016-11-15T17:44:01.955Z,99.99
2016-11-15T17:45:01.952Z,99.99
2016-11-15T17:46:01.923Z,99.99
2016-11-15T17:47:01.907Z,99.99
2016-11-15T17:48:01.906Z,99.99
2016-11-15T17:49:01.881Z,99.99
2016-11-15T17:50:01.877Z,99.99
2016-11-15T17:51:01.858Z,99.99
2016-11-15T17:52:01.837Z,99.99
2016-11-15T17:53:01.829Z,99.99
2016-11-15T17:54:01.812Z,99.99
2016-11-15T17:55:01.777Z,99.99
2016-11-15T17:56:01.824Z,99.99
2016-11-15T17:57:01.750Z,99.99
2016-11-15T17:58:01.743Z,99.99
2016-11-15T17:59:01.735Z,99.99
2016-11-15T18:00:01.715Z,99.99
2016-11-15T18:01:01.686Z,99.99
2016-11-15T18:02:01.852Z,99.99
2016-11-15T18:03:01.667Z,99.99
2016-11-15T18:04:01.633Z,99.99
2016-11-15T18:05:01.635Z,99.99
2016-11-15T18:06:01.619Z,99.99
2016-11-15T18:07:01.592Z,99.99
2016-11-15T18:08:01.575Z,99.99
2016-11-15T18:09:01.559Z,99.99
2016-11-15T18:10:01.554Z,99.99
2016-11-15T18:11:01.536Z,99.99
2016-11-15T18:12:01.508Z,99.99
2016-11-15T18:13:01.489Z,99.99
2016-11-15T18:14:01.480Z,99.99
2016-11-15T18:15:01.472Z,99.99
2016-11-15T18:16:01.464Z,99.99
2016-11-15T18:17:01.434Z,99.99
2016-11-15T18:18:01.435Z,99.99
2016-11-15T18:19:01.403Z,99.99
2016-11-15T18:20:01.402Z,99.99
2016-11-15T18:21:01.376Z,99.99
2016-11-15T18:22:01.362Z,99.99
2016-11-15T18:23:01.331Z,99.99
2016-11-15T18:24:01.323Z,99.99
2016-11-15T18:25:01.298Z,99.99
2016-11-15T18:26:01.290Z,99.99
2016-11-15T18:27:01.569Z,99.99
2016-11-15T18:28:01.273Z,99.99
2016-11-15T18:29:01.236Z,99.99
2016-11-15T18:30:01.223Z,99.99
2016-11-15T18:31:01.416Z,99.99
2016-11-15T18:32:01.205Z,99.99
2016-11-15T18:33:01.174Z,99.99
2016-11-15T18:34:01.188Z,99.99
2016-11-15T18:35:01.144Z,99.99
2016-11-15T18:36:01.129Z,99.99
2016-11-15T18:37:01.129Z,99.99
2016-11-15T18:38:01.123Z,99.99
2016-11-15T18:39:01.098Z,99.99
2016-11-15T18:40:01.067Z,99.99
2016-11-15T18:41:01.067Z,99.99
2016-11-15T18:42:01.060Z,99.99
2016-11-15T18:43:01.034Z,99.99
2016-11-15T18:44:01.010Z,99.99
2016-11-15T18:45:01.016Z,99.99
2016-11-15T18:46:01.009Z,99.99
2016-11-15T18:47:00.986Z,99.99
2016-11-15T18:48:00.972Z,99.99
2016-11-15T18:49:00.939Z,99.99
2016-11-15T18:50:00.920Z,99.99
2016-11-15T18:51:00.920Z,99.99
2016-11-15T18:52:00.906Z,99.99
2016-11-15T18:53:00.886Z,99.99
2016-11-15T18:54:00.868Z,99.99
2016-11-15T18:55:00.869Z,99.99
2016-11-15T18:56:00.854Z,99.99
2016-11-15T18:57:00.840Z,99.99
2016-11-15T18:58:01.111Z,99.99
2016-11-15T18:59:00.803Z,99.99
2016-11-15T19:00:00.786Z,99.99
2016-11-15T19:01:00.768Z,99.99
2016-11-15T19:02:00.960Z,99.99
2016-11-15T19:03:00.751Z,99.99
2016-11-15T19:04:00.715Z,99.99
2016-11-15T19:05:00.707Z,99.99
2016-11-15T19:06:00.685Z,99.99
2016-11-15T19:07:00.671Z,99.99
2016-11-15T19:08:00.657Z,99.99
2016-11-15T19:09:00.653Z,99.99
2016-11-15T19:10:00.645Z,99.99
2016-11-15T19:11:00.630Z,99.99
2016-11-15T19:12:00.597Z,99.99
2016-11-15T19:13:00.597Z,99.99
2016-11-15T19:14:00.586Z,99.99
2016-11-15T19:15:00.549Z,99.99
2016-11-15T19:16:00.545Z,99.99
2016-11-15T19:17:00.543Z,99.99
2016-11-15T19:18:00.514Z,99.99
2016-11-15T19:19:00.505Z,99.99
2016-11-15T19:20:00.489Z,99.99
2016-11-15T19:21:00.472Z,99.99
2016-11-15T19:22:00.448Z,99.99
2016-11-15T19:23:00.437Z,99.99
2016-11-15T19:24:00.420Z,99.99
2016-11-15T19:25:00.418Z,99.99
2016-11-15T19:26:00.390Z,99.99
2016-11-15T19:27:00.381Z,99.99
2016-11-15T19:28:00.366Z,99.99
2016-11-15T19:29:00.360Z,99.99
2016-11-15T19:30:00.328Z,99.99
2016-11-15T19:31:00.308Z,99.99
2016-11-15T19:32:00.289Z,99.99
2016-11-15T19:33:00.511Z,99.99
2016-11-15T19:34:00.261Z,99.99
2016-11-15T19:35:00.251Z,99.99
2016-11-15T19:36:00.251Z,99.99
2016-11-15T19:37:00.220Z,99.99
2016-11-15T19:38:00.219Z,99.99
2016-11-15T19:39:00.183Z,99.99
2016-11-15T19:40:00.176Z,99.99
2016-11-15T19:41:00.168Z,99.99
2016-11-15T19:42:00.158Z,99.99
2016-11-15T19:43:00.125Z,99.99
2016-11-15T19:44:00.116Z,99.99
2016-11-15T19:45:00.101Z,99.99
2016-11-15T19:46:00.081Z,99.99
2016-11-15T19:47:00.087Z,99.99
2016-11-15T19:48:00.075Z,99.99
2016-11-15T19:49:00.038Z,99.99
2016-11-15T19:50:00.030Z,99.99
2016-11-15T19:51:00.029Z,99.99
2016-11-15T19:52:00.036Z,99.99
2016-11-15T19:52:59.997Z,99.99
2016-11-15T19:53:59.976Z,99.99
2016-11-15T19:54:59.949Z,99.99
2016-11-15T19:55:59.934Z,99.99
2016-11-15T19:56:59.940Z,99.99
2016-11-15T19:57:59.906Z,99.99
2016-11-15T19:58:59.902Z,99.99
2016-11-15T19:59:59.905Z,99.99
2016-11-15T20:00:59.875Z,99.99
2016-11-15T20:02:00.055Z,99.99
2016-11-15T20:03:00.052Z,99.99
2016-11-15T20:03:59.838Z,99.99
2016-11-15T20:04:59.824Z,99.99
2016-11-15T20:05:59.797Z,99.99
2016-11-15T20:06:59.796Z,99.99
2016-11-15T20:07:59.780Z,99.99
2016-11-15T20:08:59.766Z,99.99
2016-11-15T20:09:59.733Z,99.99
2016-11-15T20:10:59.768Z,99.99
2016-11-15T20:11:59.732Z,99.99
2016-11-15T20:12:59.687Z,99.99
2016-11-15T20:13:59.680Z,99.99
2016-11-15T20:14:59.684Z,99.99
2016-11-15T20:15:59.647Z,99.99
2016-11-15T20:16:59.639Z,99.99
2016-11-15T20:17:59.624Z,99.99
2016-11-15T20:18:59.604Z,99.99
2016-11-15T20:19:59.610Z,99.99
2016-11-15T20:20:59.584Z,99.99
2016-11-15T20:21:59.565Z,99.99
2016-11-15T20:22:59.545Z,99.99
2016-11-15T20:23:59.545Z,99.99
2016-11-15T20:24:59.523Z,99.99
2016-11-15T20:25:59.522Z,99.99
2016-11-15T20:26:59.511Z,99.99
2016-11-15T20:27:59.473Z,99.99
2016-11-15T20:28:59.467Z,99.99
2016-11-15T20:29:59.442Z,99.99
2016-11-15T20:30:59.450Z,99.99
2016-11-15T20:31:59.440Z,99.99
2016-11-15T20:32:59.401Z,99.99
2016-11-15T20:33:59.398Z,99.99
2016-11-15T20:34:59.393Z,99.99
2016-11-15T20:35:59.371Z,99.99
2016-11-15T20:36:59.344Z,99.99
2016-11-15T20:37:59.329Z,99.99
2016-11-15T20:38:59.322Z,99.99
2016-11-15T20:39:59.315Z,99.99
2016-11-15T20:40:59.287Z,99.99
2016-11-15T20:41:59.279Z,99.99
2016-11-15T20:42:59.281Z,99.99
2016-11-15T20:43:59.248Z,99.99
2016-11-15T20:44:59.242Z,99.99
2016-11-15T20:45:59.236Z,99.99
2016-11-15T20:46:59.220Z,99.99
2016-11-15T20:47:59.204Z,99.99
2016-11-15T20:48:59.177Z,99.99
2016-11-15T20:49:59.167Z,99.99
2016-11-15T20:50:59.158Z,99.99
2016-11-15T20:51:59.139Z,99.99
2016-11-15T20:52:59.145Z,99.99
2016-11-15T20:53:59.119Z,99.99
2016-11-15T20:54:59.100Z,99.99
2016-11-15T20:55:59.079Z,99.99
2016-11-15T20:56:59.067Z,99.99
2016-11-15T20:57:59.046Z,99.99
2016-11-15T20:58:59.045Z,99.99
2016-11-15T20:59:59.017Z,99.99
2016-11-15T21:00:59.009Z,99.99
2016-11-15T21:01:58.995Z,99.99
2016-11-15T21:02:58.982Z,99.99
2016-11-15T21:03:58.966Z,99.99
2016-11-15T21:04:58.944Z,99.99
2016-11-15T21:05:58.931Z,99.99
2016-11-15T21:06:58.931Z,99.99
2016-11-15T21:07:58.910Z,99.99
2016-11-15T21:08:58.904Z,99.99
2016-11-15T21:09:58.910Z,99.99
2016-11-15T21:10:58.855Z,99.99
2016-11-15T21:11:58.840Z,99.99
2016-11-15T21:12:58.840Z,99.99
2016-11-15T21:13:58.831Z,99.99
2016-11-15T21:14:58.806Z,99.99
2016-11-15T21:15:58.790Z,99.99
2016-11-15T21:16:58.789Z,99.99
2016-11-15T21:17:58.769Z,99.99
2016-11-15T21:18:58.759Z,99.99
2016-11-15T21:19:58.734Z,99.99
2016-11-15T21:20:58.819Z,99.99
2016-11-15T21:21:58.717Z,99.99
2016-11-15T21:22:58.683Z,99.99
2016-11-15T21:23:58.683Z,99.99
2016-11-15T21:24:58.695Z,99.99
2016-11-15T21:25:58.646Z,99.99
2016-11-15T21:26:58.626Z,99.99
2016-11-15T21:27:58.633Z,99.99
2016-11-15T21:28:58.598Z,99.99
2016-11-15T21:29:58.599Z,99.99
2016-11-15T21:30:58.590Z,99.99
2016-11-15T21:31:58.576Z,99.99
2016-11-15T21:32:58.563Z,99.99
2016-11-15T21:33:58.534Z,99.99
2016-11-15T21:34:58.516Z,99.99